createdAt,value
2023-05-06T00:00:06.669Z,3.17
2023-05-06T00:02:33.927Z,2.92
2023-05-06T00:05:01.214Z,2.40
2023-05-06T00:07:28.002Z,2.78
2023-05-06T00:09:55.815Z,2.50
2023-05-06T00:12:22.671Z,3.03
2023-05-06T00:14:49.619Z,2.70
2023-05-06T00:17:16.605Z,2.63
2023-05-06T00:19:44.533Z,2.67
2023-05-06T00:22:11.576Z,3.25
2023-05-06T00:24:38.787Z,2.63
2023-05-06T00:27:05.847Z,2.65
2023-05-06T00:29:33.057Z,2.38
2023-05-06T00:32:00.156Z,2.33
2023-05-06T00:34:27.363Z,2.50
2023-05-06T00:36:54.490Z,2.22
2023-05-06T00:39:21.405Z,2.55
2023-05-06T00:41:48.417Z,2.28
2023-05-06T00:44:15.467Z,2.10
2023-05-06T00:46:44.331Z,2.20
2023-05-06T00:49:13.223Z,2.13
2023-05-06T00:51:40.392Z,2.20
2023-05-06T00:54:07.443Z,2.33
2023-05-06T00:56:34.518Z,2.28
2023-05-06T00:59:02.044Z,2.75
2023-05-06T01:01:31.677Z,2.20
2023-05-06T01:04:00.902Z,2.80
2023-05-06T01:06:43.308Z,2.60
2023-05-06T01:09:39.458Z,2.92
2023-05-06T01:12:32.624Z,3.08
2023-05-06T01:15:19.085Z,3.22
2023-05-06T01:17:47.213Z,2.97
2023-05-06T01:20:16.296Z,3.25
2023-05-06T01:22:43.652Z,3.83
2023-05-06T01:25:20.279Z,3.35
2023-05-06T01:27:47.266Z,4.00
2023-05-06T01:30:16.430Z,3.65
2023-05-06T01:33:36.125Z,3.15
2023-05-06T01:36:25.965Z,3.17
2023-05-06T01:39:09.357Z,3.42
2023-05-06T01:41:39.446Z,3.70
2023-05-06T01:44:08.436Z,3.35
2023-05-06T01:46:36.427Z,3.35
2023-05-06T01:49:11.533Z,3.20
2023-05-06T01:51:38.937Z,3.13
2023-05-06T01:54:05.992Z,3.75
2023-05-06T01:56:33.242Z,3.45
2023-05-06T01:59:01.081Z,3.33
2023-05-06T02:01:28.093Z,3.45
2023-05-06T02:03:55.154Z,3.28
2023-05-06T02:06:22.233Z,3.38
2023-05-06T02:08:49.688Z,3.20
2023-05-06T02:11:16.896Z,3.35
2023-05-06T02:13:43.993Z,3.17
2023-05-06T02:16:11.501Z,3.33
2023-05-06T02:18:38.543Z,3.55
2023-05-06T02:21:05.353Z,3.20
2023-05-06T02:23:32.354Z,3.40
2023-05-06T02:25:59.553Z,3.30
2023-05-06T02:28:26.584Z,3.45
2023-05-06T02:30:57.710Z,3.65
2023-05-06T02:33:24.972Z,4.07
2023-05-06T02:35:51.935Z,3.33
2023-05-06T02:38:19.832Z,3.20
2023-05-06T02:40:46.877Z,3.90
2023-05-06T02:43:13.979Z,3.78
2023-05-06T02:45:41.116Z,3.53
2023-05-06T02:48:08.274Z,4.20
2023-05-06T02:50:39.255Z,3.70
2023-05-06T02:53:06.384Z,3.35
2023-05-06T02:55:33.340Z,3.92
2023-05-06T02:58:00.338Z,3.28
2023-05-06T03:00:27.155Z,3.55
2023-05-06T03:02:54.076Z,3.67
2023-05-06T03:05:21.322Z,3.78
2023-05-06T03:07:48.269Z,4.05
2023-05-06T03:10:15.418Z,4.18
2023-05-06T03:12:42.540Z,3.80
2023-05-06T03:15:10.227Z,3.63
2023-05-06T03:17:37.831Z,3.42
2023-05-06T03:20:06.984Z,3.58
2023-05-06T03:22:33.914Z,3.70
2023-05-06T03:25:01.230Z,3.75
2023-05-06T03:27:30.560Z,3.67
2023-05-06T03:29:57.752Z,3.63
2023-05-06T03:32:27.265Z,3.70
2023-05-06T03:34:54.265Z,4.68
2023-05-06T03:37:21.299Z,4.15
2023-05-06T03:39:48.348Z,3.75
2023-05-06T03:42:16.263Z,3.40
2023-05-06T03:44:43.277Z,3.30
2023-05-06T03:47:10.854Z,3.40
2023-05-06T03:49:37.874Z,3.35
2023-05-06T03:52:05.488Z,3.55
2023-05-06T03:54:32.494Z,3.30
2023-05-06T03:56:59.519Z,4.00
2023-05-06T03:59:26.758Z,3.97
2023-05-06T04:01:54.010Z,3.58
2023-05-06T04:04:21.803Z,3.72
2023-05-06T04:06:48.903Z,3.97
2023-05-06T04:09:16.083Z,3.70
2023-05-06T04:11:43.157Z,4.38
2023-05-06T04:14:10.247Z,4.10
2023-05-06T04:16:37.271Z,4.40
2023-05-06T04:19:06.464Z,4.22
2023-05-06T04:21:33.723Z,4.35
2023-05-06T04:24:00.889Z,4.20
2023-05-06T04:26:27.738Z,4.32
2023-05-06T04:28:55.281Z,3.90
2023-05-06T04:31:23.566Z,3.80
2023-05-06T04:33:51.340Z,3.60
2023-05-06T04:36:18.971Z,6.05
2023-05-06T04:38:47.336Z,4.35
2023-05-06T04:41:14.402Z,4.13
2023-05-06T04:43:41.641Z,5.00
2023-05-06T04:46:08.743Z,4.50
2023-05-06T04:48:36.660Z,4.07
2023-05-06T04:51:07.027Z,4.50
2023-05-06T04:53:34.278Z,4.10
2023-05-06T04:56:01.345Z,4.25
2023-05-06T04:58:28.236Z,4.22
2023-05-06T05:00:55.449Z,3.72
2023-05-06T05:03:23.259Z,3.67
2023-05-06T05:05:50.937Z,3.80
2023-05-06T05:08:18.059Z,4.20
2023-05-06T05:10:45.889Z,4.30
2023-05-06T05:13:14.313Z,3.97
2023-05-06T05:15:41.369Z,3.78
2023-05-06T05:18:09.020Z,4.05
2023-05-06T05:20:35.986Z,4.05
2023-05-06T05:23:03.085Z,4.20
2023-05-06T05:25:30.748Z,4.00
2023-05-06T05:27:57.753Z,4.18
2023-05-06T05:30:25.802Z,4.38
2023-05-06T05:32:52.972Z,4.35
2023-05-06T05:35:20.770Z,4.35
2023-05-06T05:37:47.668Z,4.30
2023-05-06T05:40:14.877Z,4.82
2023-05-06T05:42:41.953Z,4.38
2023-05-06T05:45:09.470Z,4.10
2023-05-06T05:47:36.639Z,4.63
2023-05-06T05:50:04.442Z,4.15
2023-05-06T05:52:31.625Z,4.45
2023-05-06T05:54:58.736Z,4.43
2023-05-06T05:57:26.220Z,4.53
2023-05-06T05:59:53.217Z,5.07
2023-05-06T06:02:20.364Z,4.43
2023-05-06T06:04:48.120Z,4.60
2023-05-06T06:07:15.576Z,4.57
2023-05-06T06:09:43.277Z,6.28
2023-05-06T06:12:10.181Z,4.90
2023-05-06T06:14:37.089Z,4.78
2023-05-06T06:17:04.264Z,5.32
2023-05-06T06:19:31.164Z,4.63
2023-05-06T06:21:58.079Z,4.97
2023-05-06T06:24:25.265Z,5.00
2023-05-06T06:26:52.380Z,4.82
2023-05-06T06:29:19.286Z,4.88
2023-05-06T06:31:46.266Z,5.00
2023-05-06T06:34:13.423Z,4.85
2023-05-06T06:36:45.164Z,5.18
2023-05-06T06:39:13.711Z,4.57
2023-05-06T06:41:40.628Z,4.85
2023-05-06T06:44:07.878Z,4.15
2023-05-06T06:46:35.272Z,4.72
2023-05-06T06:49:02.183Z,4.85
2023-05-06T06:51:29.125Z,4.68
2023-05-06T06:53:56.418Z,5.13
2023-05-06T06:56:25.863Z,5.30
2023-05-06T06:58:55.436Z,5.32
2023-05-06T07:01:22.320Z,4.97
2023-05-06T07:03:51.620Z,5.15
2023-05-06T07:06:18.569Z,5.13
2023-05-06T07:08:45.582Z,4.65
2023-05-06T07:11:14.498Z,4.90
2023-05-06T07:13:41.327Z,4.40
2023-05-06T07:16:09.931Z,4.65
2023-05-06T07:18:36.813Z,4.63
2023-05-06T07:21:04.029Z,5.10
2023-05-06T07:23:32.168Z,4.57
2023-05-06T07:25:59.769Z,4.95
2023-05-06T07:28:26.753Z,4.05
2023-05-06T07:30:54.819Z,7.90
2023-05-06T07:33:24.920Z,5.75
2023-05-06T07:35:54.599Z,5.50
2023-05-06T07:38:23.597Z,5.57
2023-05-06T07:40:52.092Z,5.88
2023-05-06T07:43:19.142Z,5.70
2023-05-06T07:45:46.284Z,5.15
2023-05-06T07:48:13.389Z,5.45
2023-05-06T07:50:40.482Z,5.40
2023-05-06T07:53:08.350Z,5.03
2023-05-06T07:55:37.631Z,4.82
2023-05-06T07:58:04.646Z,4.97
2023-05-06T08:00:31.701Z,4.45
2023-05-06T08:02:59.201Z,4.70
2023-05-06T08:05:26.337Z,4.95
2023-05-06T08:07:54.156Z,4.63
2023-05-06T08:10:22.266Z,4.53
2023-05-06T08:12:49.460Z,5.78
2023-05-06T08:15:17.208Z,3.95
2023-05-06T08:17:44.108Z,4.28
2023-05-06T08:20:11.605Z,3.83
2023-05-06T08:22:39.537Z,3.90
2023-05-06T08:25:07.143Z,4.18
2023-05-06T08:27:34.269Z,4.10
2023-05-06T08:30:03.095Z,3.92
2023-05-06T08:32:30.098Z,5.68
2023-05-06T08:34:57.353Z,4.57
2023-05-06T08:37:24.483Z,4.85
2023-05-06T08:39:51.539Z,4.32
2023-05-06T08:42:18.527Z,4.20
2023-05-06T08:44:45.974Z,3.40
2023-05-06T08:47:13.364Z,3.40
2023-05-06T08:49:40.368Z,3.45
2023-05-06T08:52:07.353Z,3.50
2023-05-06T08:54:38.307Z,3.60
2023-05-06T08:57:06.565Z,3.60
2023-05-06T08:59:34.653Z,4.80
2023-05-06T09:02:02.328Z,3.22
2023-05-06T09:04:30.012Z,3.08
2023-05-06T09:06:59.803Z,3.88
2023-05-06T09:09:27.022Z,3.75
2023-05-06T09:11:57.432Z,4.20
2023-05-06T09:14:24.807Z,3.58
2023-05-06T09:16:53.239Z,3.05
2023-05-06T09:19:22.389Z,4.05
2023-05-06T09:21:52.099Z,2.55
2023-05-06T09:24:20.436Z,4.30
2023-05-06T09:26:47.608Z,3.53
2023-05-06T09:29:14.774Z,3.00
2023-05-06T09:31:43.964Z,3.08
2023-05-06T09:34:12.583Z,3.10
2023-05-06T09:36:40.974Z,2.83
2023-05-06T09:39:08.882Z,2.50
2023-05-06T09:41:36.066Z,2.33
2023-05-06T09:44:03.905Z,2.88
2023-05-06T09:46:30.900Z,2.42
2023-05-06T09:48:59.166Z,2.95
2023-05-06T09:51:28.610Z,2.92
2023-05-06T09:53:57.835Z,2.60
2023-05-06T09:56:26.221Z,2.80
2023-05-06T09:59:03.687Z,3.05
2023-05-06T10:01:37.757Z,3.10
2023-05-06T10:04:09.085Z,2.97
2023-05-06T10:06:39.979Z,3.05
2023-05-06T10:09:08.628Z,3.20
2023-05-06T10:11:36.483Z,3.03
2023-05-06T10:14:04.306Z,3.90
2023-05-06T10:16:33.313Z,3.35
2023-05-06T10:19:02.454Z,3.13
2023-05-06T10:21:34.584Z,3.22
2023-05-06T10:24:07.272Z,3.00
2023-05-06T10:26:38.123Z,3.85
2023-05-06T10:29:14.380Z,3.00
2023-05-06T10:31:56.316Z,3.65
2023-05-06T10:34:25.917Z,3.08
2023-05-06T10:36:59.047Z,2.55
2023-05-06T10:39:32.987Z,3.15
2023-05-06T10:42:04.421Z,3.28
2023-05-06T10:45:01.157Z,2.28
2023-05-06T10:47:30.636Z,2.50
2023-05-06T10:50:31.385Z,2.00
2023-05-06T10:52:59.948Z,2.33
2023-05-06T10:55:33.353Z,1.75
2023-05-06T10:58:16.383Z,1.90
2023-05-06T11:00:55.850Z,2.33
2023-05-06T11:03:25.540Z,2.08
2023-05-06T11:05:53.348Z,2.10
2023-05-06T11:08:25.925Z,2.33
2023-05-06T11:10:56.137Z,2.17
2023-05-06T11:13:27.672Z,1.80
2023-05-06T11:15:56.391Z,2.40
2023-05-06T11:18:29.606Z,1.90
2023-05-06T11:21:02.833Z,2.45
2023-05-06T11:23:42.684Z,2.20
2023-05-06T11:26:11.269Z,1.90
2023-05-06T11:28:45.627Z,1.98
2023-05-06T11:31:14.100Z,2.30
2023-05-06T11:33:49.592Z,2.17
2023-05-06T11:36:18.241Z,1.90
2023-05-06T11:38:53.051Z,1.85
2023-05-06T11:41:22.150Z,1.92
2023-05-06T11:43:50.653Z,2.13
2023-05-06T11:46:23.170Z,1.98
2023-05-06T11:48:50.930Z,2.50
2023-05-06T11:51:24.295Z,1.98
2023-05-06T11:54:05.112Z,1.90
2023-05-06T11:56:43.750Z,2.13
2023-05-06T11:59:10.737Z,1.92
2023-05-06T12:01:39.311Z,2.20
2023-05-06T12:04:07.202Z,2.17
2023-05-06T12:06:35.447Z,1.95
2023-05-06T12:09:07.575Z,1.85
2023-05-06T12:11:35.835Z,2.20
2023-05-06T12:14:05.758Z,2.08
2023-05-06T12:16:33.825Z,1.80
2023-05-06T12:19:01.851Z,1.75
2023-05-06T12:21:30.035Z,1.73
2023-05-06T12:23:59.602Z,1.92
2023-05-06T12:26:27.449Z,1.88
2023-05-06T12:29:07.640Z,2.17
2023-05-06T12:31:35.358Z,2.25
2023-05-06T12:34:03.491Z,1.92
2023-05-06T12:36:32.369Z,2.22
2023-05-06T12:39:01.417Z,2.10
2023-05-06T12:41:43.044Z,1.90
2023-05-06T12:44:34.959Z,2.35
2023-05-06T12:47:04.148Z,2.47
2023-05-06T12:49:59.211Z,1.80
2023-05-06T12:52:29.724Z,1.98
2023-05-06T12:54:57.150Z,1.92
2023-05-06T12:57:24.033Z,2.00
2023-05-06T12:59:51.436Z,2.42
2023-05-06T13:02:19.130Z,2.00
2023-05-06T13:04:47.570Z,2.13
2023-05-06T13:07:14.502Z,2.40
2023-05-06T13:09:41.435Z,2.40
2023-05-06T13:12:08.636Z,1.73
2023-05-06T13:14:38.445Z,2.47
2023-05-06T13:17:07.112Z,1.73
2023-05-06T13:19:34.265Z,1.63
2023-05-06T13:22:02.475Z,2.08
2023-05-06T13:24:29.984Z,1.70
2023-05-06T13:26:57.387Z,1.60
2023-05-06T13:29:24.919Z,1.50
2023-05-06T13:31:51.961Z,2.35
2023-05-06T13:34:21.908Z,1.85
2023-05-06T13:36:49.767Z,1.90
2023-05-06T13:39:16.948Z,1.55
2023-05-06T13:41:47.499Z,2.20
2023-05-06T13:44:15.529Z,1.80
2023-05-06T13:46:44.863Z,2.17
2023-05-06T13:49:15.125Z,2.10
2023-05-06T13:51:42.038Z,1.85
2023-05-06T13:54:08.862Z,2.17
2023-05-06T13:56:36.281Z,2.22
2023-05-06T13:59:03.519Z,2.28
2023-05-06T14:01:31.075Z,1.88
2023-05-06T14:03:58.790Z,2.15
2023-05-06T14:06:26.699Z,1.75
2023-05-06T14:08:54.593Z,2.58
2023-05-06T14:11:21.636Z,2.08
2023-05-06T14:13:49.330Z,2.38
2023-05-06T14:16:19.261Z,1.85
2023-05-06T14:18:46.515Z,2.42
2023-05-06T14:21:13.854Z,1.90
2023-05-06T14:23:41.099Z,1.90
2023-05-06T14:26:08.429Z,2.28
2023-05-06T14:28:36.047Z,1.85
2023-05-06T14:31:03.431Z,1.77
2023-05-06T14:33:30.822Z,2.83
2023-05-06T14:35:59.192Z,1.90
2023-05-06T14:38:26.971Z,1.88
2023-05-06T14:40:54.167Z,2.20
2023-05-06T14:43:21.272Z,2.17
2023-05-06T14:45:48.646Z,2.75
2023-05-06T14:48:16.287Z,2.70
2023-05-06T14:50:45.074Z,2.05
2023-05-06T14:53:12.193Z,2.30
2023-05-06T14:55:40.906Z,2.63
2023-05-06T14:58:07.931Z,2.55
2023-05-06T15:00:35.153Z,2.47
2023-05-06T15:03:03.163Z,2.33
2023-05-06T15:05:30.156Z,2.20
2023-05-06T15:07:57.036Z,2.10
2023-05-06T15:10:24.134Z,1.75
2023-05-06T15:12:51.167Z,2.22
2023-05-06T15:15:18.676Z,1.83
2023-05-06T15:17:45.669Z,2.70
2023-05-06T15:20:13.713Z,2.30
2023-05-06T15:22:40.680Z,2.03
2023-05-06T15:25:12.232Z,2.72
2023-05-06T15:27:41.563Z,2.35
2023-05-06T15:30:11.209Z,1.70
2023-05-06T15:32:38.230Z,2.30
2023-05-06T15:35:07.942Z,2.25
2023-05-06T15:37:35.389Z,1.95
2023-05-06T15:40:02.510Z,2.30
2023-05-06T15:42:30.070Z,1.98
2023-05-06T15:44:58.248Z,2.42
2023-05-06T15:47:25.616Z,2.20
2023-05-06T15:49:55.006Z,1.92
2023-05-06T15:52:23.144Z,2.05
2023-05-06T15:54:50.881Z,1.95
2023-05-06T15:57:18.149Z,1.83
2023-05-06T15:59:44.962Z,2.53
2023-05-06T16:05:09.827Z,1.95
2023-05-06T16:07:36.732Z,2.25
2023-05-06T16:10:04.643Z,2.13
2023-05-06T16:12:33.544Z,2.00
2023-05-06T16:15:00.914Z,1.67
2023-05-06T16:17:27.965Z,2.25
2023-05-06T16:19:55.750Z,2.20
2023-05-06T16:22:22.638Z,2.17
2023-05-06T16:24:49.720Z,2.30
2023-05-06T16:27:16.767Z,2.78
2023-05-06T16:29:43.718Z,2.05
2023-05-06T16:32:10.607Z,2.63
2023-05-06T16:34:39.802Z,2.10
2023-05-06T16:37:08.107Z,2.03
2023-05-06T16:39:35.091Z,2.20
2023-05-06T16:42:02.318Z,2.10
2023-05-06T16:44:29.656Z,2.20
2023-05-06T16:46:57.029Z,2.38
2023-05-06T16:49:27.956Z,2.58
2023-05-06T16:51:57.097Z,2.28
2023-05-06T16:54:24.138Z,2.20
2023-05-06T16:56:52.998Z,2.47
2023-05-06T16:59:22.223Z,1.90
2023-05-06T17:01:50.451Z,2.40
2023-05-06T17:04:17.582Z,2.45
2023-05-06T17:06:44.676Z,2.38
2023-05-06T17:09:12.256Z,1.98
2023-05-06T17:11:39.390Z,2.13
2023-05-06T17:14:06.507Z,2.13
2023-05-06T17:16:33.569Z,2.25
2023-05-06T17:19:00.527Z,2.15
2023-05-06T17:21:27.902Z,2.10
2023-05-06T17:23:54.918Z,2.45
2023-05-06T17:26:23.152Z,2.33
2023-05-06T17:28:51.120Z,2.53
2023-05-06T17:31:18.711Z,2.55
2023-05-06T17:33:46.066Z,2.45
2023-05-06T17:36:16.822Z,2.33
2023-05-06T17:38:43.801Z,2.40
2023-05-06T17:41:11.117Z,2.53
2023-05-06T17:43:38.174Z,2.20
2023-05-06T17:46:06.777Z,2.40
2023-05-06T17:48:33.765Z,1.85
2023-05-06T17:51:04.757Z,2.33
2023-05-06T17:53:34.095Z,2.42
2023-05-06T17:56:01.218Z,2.25
2023-05-06T17:58:28.308Z,1.65
2023-05-06T18:00:55.155Z,3.85
2023-05-06T18:03:23.021Z,2.22
2023-05-06T18:05:50.078Z,2.25
2023-05-06T18:08:17.126Z,2.90
2023-05-06T18:10:44.990Z,2.28
2023-05-06T18:13:12.065Z,2.65
2023-05-06T18:15:39.169Z,2.25
2023-05-06T18:18:07.143Z,2.35
2023-05-06T18:20:34.114Z,2.05
2023-05-06T18:23:01.143Z,2.40
2023-05-06T18:25:28.435Z,2.42
2023-05-06T18:27:55.324Z,2.22
2023-05-06T18:30:22.292Z,2.65
2023-05-06T18:32:51.345Z,2.30
2023-05-06T18:35:19.287Z,2.90
2023-05-06T18:37:46.150Z,2.75
2023-05-06T18:40:14.590Z,2.65
2023-05-06T18:42:41.414Z,2.47
2023-05-06T18:45:09.398Z,3.03
2023-05-06T18:47:37.724Z,2.83
2023-05-06T18:50:05.012Z,2.30
2023-05-06T18:52:32.004Z,2.70
2023-05-06T18:54:59.146Z,2.65
2023-05-06T18:57:27.013Z,2.83
2023-05-06T18:59:54.035Z,2.53
2023-05-06T19:02:21.766Z,2.72
2023-05-06T19:04:49.608Z,2.45
2023-05-06T19:07:16.875Z,2.63
2023-05-06T19:09:43.869Z,3.10
2023-05-06T19:12:11.595Z,2.28
2023-05-06T19:14:38.625Z,2.95
2023-05-06T19:17:06.013Z,3.08
2023-05-06T19:19:33.015Z,3.00
2023-05-06T19:22:01.795Z,2.65
2023-05-06T19:24:30.278Z,3.17
2023-05-06T19:26:57.278Z,2.90
2023-05-06T19:29:24.356Z,3.20
2023-05-06T19:31:51.281Z,3.53
2023-05-06T19:34:18.405Z,3.90
2023-05-06T19:36:45.568Z,3.50
2023-05-06T19:39:12.582Z,3.80
2023-05-06T19:41:39.957Z,3.30
2023-05-06T19:44:06.977Z,2.90
2023-05-06T19:46:34.093Z,3.35
2023-05-06T19:49:01.132Z,4.57
2023-05-06T19:51:28.450Z,2.97
2023-05-06T19:53:55.418Z,3.33
2023-05-06T19:56:22.491Z,3.83
2023-05-06T19:58:50.962Z,3.80
2023-05-06T20:01:21.919Z,3.70
2023-05-06T20:03:49.335Z,3.42
2023-05-06T20:06:16.508Z,3.58
2023-05-06T20:08:43.466Z,3.70
2023-05-06T20:11:11.266Z,3.55
2023-05-06T20:13:38.200Z,4.13
2023-05-06T20:16:06.207Z,2.95
2023-05-06T20:18:33.832Z,3.40
2023-05-06T20:21:00.918Z,3.38
2023-05-06T20:23:29.320Z,3.35
2023-05-06T20:25:56.505Z,4.70
2023-05-06T20:28:23.410Z,4.75
2023-05-06T20:30:51.456Z,4.47
2023-05-06T20:33:18.592Z,4.70
2023-05-06T20:35:45.917Z,5.60
2023-05-06T20:38:12.841Z,4.05
2023-05-06T20:40:39.879Z,3.25
2023-05-06T20:43:07.082Z,3.88
2023-05-06T20:45:34.267Z,3.70
2023-05-06T20:48:01.241Z,3.50
2023-05-06T20:50:30.039Z,3.30
2023-05-06T20:52:57.240Z,3.63
2023-05-06T20:55:25.875Z,3.13
2023-05-06T20:57:52.929Z,3.40
2023-05-06T21:00:20.393Z,3.75
2023-05-06T21:02:51.920Z,5.22
2023-05-06T21:05:19.021Z,7.32
2023-05-06T21:07:45.941Z,11.30
2023-05-06T21:10:13.082Z,13.43
2023-05-06T21:12:40.149Z,12.65
2023-05-06T21:15:07.988Z,10.90
2023-05-06T21:17:34.977Z,8.00
2023-05-06T21:20:04.089Z,6.93
2023-05-06T21:22:32.503Z,6.60
2023-05-06T21:24:59.335Z,9.07
2023-05-06T21:27:26.375Z,8.13
2023-05-06T21:29:53.346Z,8.40
2023-05-06T21:32:20.295Z,10.02
2023-05-06T21:34:47.132Z,9.60
2023-05-06T21:37:14.017Z,8.65
2023-05-06T21:39:40.830Z,7.68
2023-05-06T21:42:07.694Z,7.55
2023-05-06T21:44:34.561Z,6.50
2023-05-06T21:47:01.360Z,6.50
2023-05-06T21:49:28.209Z,6.35
2023-05-06T21:51:55.058Z,5.95
2023-05-06T21:54:21.896Z,5.47
2023-05-06T21:56:48.837Z,5.55
2023-05-06T21:59:15.862Z,6.20
2023-05-06T22:01:42.997Z,5.93
2023-05-06T22:04:13.146Z,5.78
2023-05-06T22:06:41.882Z,5.97
2023-05-06T22:09:09.758Z,5.60
2023-05-06T22:11:40.516Z,5.20
2023-05-06T22:14:07.500Z,5.93
2023-05-06T22:16:35.832Z,5.55
2023-05-06T22:19:04.088Z,5.25
2023-05-06T22:21:32.897Z,5.25
2023-05-06T22:24:18.577Z,5.15
2023-05-06T22:26:45.787Z,5.97
2023-05-06T22:29:12.718Z,5.88
2023-05-06T22:31:39.632Z,5.82
2023-05-06T22:34:06.556Z,5.90
2023-05-06T22:36:33.732Z,5.25
2023-05-06T22:39:01.848Z,5.50
2023-05-06T22:41:29.744Z,5.82
2023-05-06T22:43:57.338Z,5.38
2023-05-06T22:46:24.241Z,5.05
2023-05-06T22:48:52.521Z,5.45
2023-05-06T22:51:21.221Z,5.25
2023-05-06T22:53:48.412Z,5.82
2023-05-06T22:56:16.325Z,5.30
2023-05-06T22:58:43.983Z,5.22
2023-05-06T23:01:12.067Z,5.60
2023-05-06T23:03:39.087Z,5.80
2023-05-06T23:06:06.477Z,5.88
2023-05-06T23:08:33.371Z,5.97
2023-05-06T23:11:00.481Z,5.90
2023-05-06T23:13:27.520Z,5.80
2023-05-06T23:15:54.638Z,5.85
2023-05-06T23:18:22.428Z,5.75
2023-05-06T23:20:49.519Z,5.85
2023-05-06T23:23:16.566Z,5.95
2023-05-06T23:25:43.656Z,5.78
2023-05-06T23:28:10.947Z,6.00
2023-05-06T23:30:38.009Z,5.75
2023-05-06T23:33:05.754Z,6.60
2023-05-06T23:35:32.950Z,5.68
2023-05-06T23:37:59.859Z,6.28
2023-05-06T23:40:28.371Z,6.05
2023-05-06T23:42:55.225Z,5.80
2023-05-06T23:45:22.161Z,5.70
2023-05-06T23:47:49.113Z,6.45
2023-05-06T23:50:16.089Z,6.97
2023-05-06T23:52:42.888Z,6.22
2023-05-06T23:55:10.638Z,6.30
2023-05-06T23:57:37.776Z,6.28
